Time;durP1;ratioP1;P1;durP2;ratioP2;P2;SDS_P1;SDS_P2;PMS_P1;PMS_P2;Temp;Humidity;BMP_temperature;BMP_pressure;BME280_temperature;BME280_humidity;BME280_pressure;Samples;Min_cycle;Max_cycle;Signal;HPM_P1;HPM_P2
2023/05/10 00:00:41;;;;;;;5.43;4.70;;;;;;;;;;5115796;27;20120;-71
2023/05/10 00:03:07;;;;;;;5.88;5.13;;;;;;;;;;5111165;28;20111;-69
2023/05/10 00:05:33;;;;;;;6.85;5.15;;;18.90;99.90;;;;;;5108923;28;20066;-69
2023/05/10 00:07:59;;;;;;;6.32;5.20;;;13.00;99.90;;;;;;5096165;28;20512;-69
2023/05/10 00:10:25;;;;;;;6.38;5.28;;;12.80;99.90;;;;;;5107760;28;20126;-69
2023/05/10 00:12:50;;;;;;;7.05;5.93;;;12.90;99.90;;;;;;5105677;27;20048;-70
2023/05/10 00:15:16;;;;;;;9.57;6.50;;;12.80;99.90;;;;;;5088710;28;20626;-69
2023/05/10 00:17:42;;;;;;;8.82;6.05;;;12.80;99.90;;;;;;5088602;28;20071;-69
2023/05/10 00:20:08;;;;;;;7.97;6.50;;;12.80;99.90;;;;;;5105119;28;20489;-69
2023/05/10 00:22:34;;;;;;;9.43;7.13;;;12.80;99.90;;;;;;5095123;28;20370;-69
2023/05/10 00:25:00;;;;;;;9.40;7.28;;;12.80;99.90;;;;;;5107695;28;20046;-69
2023/05/10 00:27:26;;;;;;;9.68;7.72;;;;;;;;;;5110235;28;20101;-69
2023/05/10 00:29:52;;;;;;;8.05;7.25;;;;;;;;;;5095734;28;20047;-68
2023/05/10 00:32:19;;;;;;;8.25;7.05;;;;;;;;;;5106283;28;20089;-69
2023/05/10 00:34:45;;;;;;;8.43;6.93;;;;;;;;;;5101278;28;20114;-69
2023/05/10 00:37:11;;;;;;;6.63;5.82;;;;;;;;;;5104619;28;20559;-69
2023/05/10 00:39:37;;;;;;;6.97;6.07;;;;;;;;;;5096424;28;20126;-69
2023/05/10 00:42:04;;;;;;;6.55;4.82;;;;;;;;;;5092527;28;20119;-69
2023/05/10 00:44:30;;;;;;;4.53;3.78;;;;;;;;;;5103259;28;20040;-69
2023/05/10 00:46:57;;;;;;;3.90;3.47;;;;;;;;;;5102802;28;20038;-69
2023/05/10 00:49:23;;;;;;;4.05;3.65;;;;;;;;;;5101796;28;20103;-69
2023/05/10 00:51:49;;;;;;;3.88;3.47;;;;;;;;;;5097605;28;20043;-69
2023/05/10 00:54:16;;;;;;;4.43;3.92;;;;;;;;;;5108346;28;20105;-69
2023/05/10 00:56:48;;;;;;;4.40;3.45;;;;;;;;;;5099178;28;20159;-71
2023/05/10 00:59:14;;;;;;;4.23;3.23;;;;;;;;;;5105451;28;20043;-69
2023/05/10 01:01:41;;;;;;;4.43;3.72;;;;;;;;;;5095242;28;20043;-70
2023/05/10 01:04:07;;;;;;;4.32;3.35;;;;;;;;;;5104008;28;20036;-69
2023/05/10 01:06:33;;;;;;;4.28;3.65;;;;;;;;;;5098977;28;20043;-69
2023/05/10 01:09:00;;;;;;;5.15;4.13;;;;;;;;;;5101410;28;20051;-69
2023/05/10 01:11:27;;;;;;;6.28;4.60;;;;;;;;;;5101390;27;20424;-69
2023/05/10 01:13:56;;;;;;;6.18;5.40;;;;;;;;;;5108361;27;20457;-69
2023/05/10 01:16:22;;;;;;;6.85;5.95;;;;;;;;;;5103547;28;20119;-69
2023/05/10 01:18:49;;;;;;;10.85;8.70;;;;;;;;;;5106698;28;20151;-68
2023/05/10 01:21:47;;;;;;;13.90;10.13;;;;;;;;;;5093237;28;20043;-68
2023/05/10 01:24:16;;;;;;;15.23;11.73;;;;;;;;;;5077206;28;20067;-69
2023/05/10 01:27:06;;;;;;;18.00;13.80;;;;;;;;;;5105985;28;20047;-69
2023/05/10 01:29:38;;;;;;;16.52;13.13;;;;;;;;;;5094907;28;20039;-69
2023/05/10 01:32:04;;;;;;;23.07;15.03;;;;;;;;;;5096881;28;20142;-69
2023/05/10 01:34:35;;;;;;;21.73;14.05;;;;;;;;;;5105707;28;20050;-68
2023/05/10 01:37:14;;;;;;;24.13;15.57;;;;;;;;;;5101443;28;20392;-69
2023/05/10 01:39:43;;;;;;;20.30;13.60;;;;;;;;;;5095265;28;20090;-69
2023/05/10 01:42:17;;;;;;;24.25;15.32;;;;;;;;;;5101477;28;20122;-68
2023/05/10 01:44:52;;;;;;;20.80;14.40;;;;;;;;;;5102984;28;20757;-68
2023/05/10 01:47:28;;;;;;;16.75;13.27;;;;;;;;;;5097972;28;20548;-70
2023/05/10 01:49:55;;;;;;;21.60;14.63;;;;;;;;;;5097392;28;20068;-70
2023/05/10 01:52:33;;;;;;;20.38;15.30;;;;;;;;;;5101055;28;20059;-69
2023/05/10 01:55:02;;;;;;;18.48;13.10;;;;;;;;;;5101926;27;20039;-68
2023/05/10 01:57:31;;;;;;;19.35;14.98;;;;;;;;;;5091996;28;20550;-68
2023/05/10 01:59:59;;;;;;;26.48;15.88;;;;;;;;;;5090754;28;20051;-70
2023/05/10 02:02:25;;;;;;;23.77;14.40;;;;;;;;;;5091885;28;20036;-69
2023/05/10 02:04:53;;;;;;;24.02;15.60;;;;;;;;;;5103418;28;20095;-69
2023/05/10 02:07:20;;;;;;;22.05;15.75;;;;;;;;;;5097619;27;20519;-69
2023/05/10 02:09:47;;;;;;;23.63;16.23;;;;;;;;;;5106823;27;20050;-69
2023/05/10 02:12:14;;;;;;;25.33;15.40;;;;;;;;;;5102889;27;20043;-68
2023/05/10 02:14:41;;;;;;;24.42;14.63;;;;;;;;;;5096991;28;20035;-70
2023/05/10 02:17:09;;;;;;;26.10;15.90;;;;;;;;;;5099631;28;20036;-68
2023/05/10 02:19:37;;;;;;;21.27;16.00;;;;;;;;;;5092499;28;20395;-68
2023/05/10 02:22:04;;;;;;;21.92;14.23;;;;;;;;;;5088672;28;20040;-68
2023/05/10 02:24:30;;;;;;;25.17;16.50;;;;;;;;;;5092446;28;20054;-69
2023/05/10 02:26:56;;;;;;;20.30;14.20;;;;;;;;;;5107775;28;20523;-69
2023/05/10 02:29:24;;;;;;;18.00;13.20;;;;;;;;;;5097217;28;20035;-69
2023/05/10 02:31:52;;;;;;;16.35;13.05;;;;;;;;;;5091697;28;20465;-68
2023/05/10 02:34:19;;;;;;;13.93;11.23;;;;;;;;;;5102840;28;20119;-69
2023/05/10 02:36:46;;;;;;;16.02;12.07;;;;;;;;;;5092722;28;20043;-68
2023/05/10 02:39:13;;;;;;;12.20;9.88;;;;;;;;;;5098394;28;20074;-69
2023/05/10 02:41:41;;;;;;;11.75;9.32;;;;;;;;;;5088455;28;20111;-70
2023/05/10 02:44:07;;;;;;;11.88;10.05;;;;;;;;;;5088823;28;20047;-68
2023/05/10 02:46:34;;;;;;;10.45;8.65;;;;;;;;;;5105509;28;20050;-69
2023/05/10 02:49:01;;;;;;;7.90;6.38;;;;;;;;;;5092921;28;20097;-68
2023/05/10 02:51:31;;;;;;;6.80;5.43;;;;;;;;;;5103856;28;20046;-69
2023/05/10 02:53:58;;;;;;;6.80;5.60;;;;;;;;;;5087661;28;20067;-68
2023/05/10 02:56:25;;;;;;;4.95;4.45;;;;;;;;;;5098495;28;20358;-68
2023/05/10 02:58:52;;;;;;;4.53;3.72;;;;;;;;;;5093796;28;20040;-68
2023/05/10 03:01:18;;;;;;;5.10;3.78;;;;;;;;;;5088664;28;20036;-68
2023/05/10 03:03:44;;;;;;;4.28;3.42;;;;;;;;;;5100832;28;20116;-69
2023/05/10 03:06:10;;;;;;;3.47;3.03;;;;;;;;;;5092211;28;20043;-68
2023/05/10 03:08:36;;;;;;;3.47;2.47;;;;;;;;;;5087422;28;20056;-70
2023/05/10 03:11:14;;;;;;;3.53;2.35;;;;;;;;;;5100896;28;20464;-68
2023/05/10 03:13:44;;;;;;;3.28;2.05;;;;;;;;;;5087493;28;20173;-69
2023/05/10 03:16:14;;;;;;;2.60;1.83;;;;;;;;;;5090916;28;20032;-69
2023/05/10 03:19:16;;;;;;;3.47;1.70;;;;;;;;;;5087950;28;20474;-69
2023/05/10 03:21:44;;;;;;;3.10;1.80;;;;;;;;;;5045275;28;20158;-68
2023/05/10 03:24:13;;;;;;;1.98;1.77;;;;;;;;;;5079017;28;20058;-69
2023/05/10 03:26:39;;;;;;;2.00;1.70;;;;;;;;;;5089856;28;20096;-69
2023/05/10 03:29:07;;;;;;;2.15;1.70;;;;;;;;;;5099961;28;20040;-69
2023/05/10 03:31:33;;;;;;;3.13;1.80;;;;;;;;;;5088268;28;20100;-70
2023/05/10 03:34:00;;;;;;;3.10;1.70;;;;;;;;;;5095999;28;20523;-69
2023/05/10 03:36:26;;;;;;;1.73;1.48;;;;;;;;;;5101978;28;20035;-69
2023/05/10 03:38:52;;;;;;;1.88;1.48;;;;;;;;;;5100135;28;20548;-68
2023/05/10 03:41:18;;;;;;;2.63;1.80;;;;;;;;;;5089091;28;20062;-68
2023/05/10 03:43:44;;;;;;;3.47;1.73;;;;;;;;;;5095578;28;20453;-69
2023/05/10 03:46:10;;;;;;;2.88;2.45;;;;;;;;;;5102584;28;20051;-68
2023/05/10 03:48:36;;;;;;;4.45;3.17;;;;;;;;;;5101400;28;20474;-69
2023/05/10 03:51:02;;;;;;;5.28;3.45;;;;;;;;;;5093424;28;20059;-69
2023/05/10 03:53:29;;;;;;;4.72;3.55;;;;;;;;;;5091249;28;20043;-69
2023/05/10 03:55:55;;;;;;;4.55;3.30;;;;;;;;;;5096761;28;20044;-69
2023/05/10 03:58:21;;;;;;;7.22;4.80;;;;;;;;;;5100958;28;20413;-69
2023/05/10 04:00:47;;;;;;;5.95;4.55;;;;;;;;;;5101766;28;20037;-69
2023/05/10 04:03:14;;;;;;;5.40;4.63;;;;;;;;;;5096404;28;20064;-69
2023/05/10 04:05:40;;;;;;;9.30;6.43;;;;;;;;;;5099532;28;20036;-69
2023/05/10 04:08:06;;;;;;;9.35;6.65;;;;;;;;;;5102466;28;20101;-70
2023/05/10 04:10:33;;;;;;;8.43;6.45;;;;;;;;;;5103264;28;20055;-68
2023/05/10 04:12:59;;;;;;;7.55;6.35;;;;;;;;;;5100090;28;20032;-69
2023/05/10 04:15:25;;;;;;;8.73;6.93;;;;;;;;;;5098332;28;20127;-68
2023/05/10 04:17:51;;;;;;;8.05;5.90;;;;;;;;;;5098671;28;20542;-68
2023/05/10 04:20:17;;;;;;;8.32;6.22;;;;;;;;;;5101402;28;20053;-68
2023/05/10 04:22:43;;;;;;;7.90;6.70;;;;;;;;;;5095154;28;20458;-69
2023/05/10 04:25:10;;;;;;;8.88;6.93;;;;;;;;;;5097393;28;20114;-69
2023/05/10 04:27:36;;;;;;;10.00;6.90;;;;;;;;;;5090363;28;20371;-68
2023/05/10 04:30:02;;;;;;;8.88;7.65;;;;;;;;;;5091886;28;20120;-68
2023/05/10 04:32:29;;;;;;;13.00;8.85;;;;;;;;;;5097201;28;20282;-69
2023/05/10 04:34:55;;;;;;;11.45;8.70;;;;;;;;;;5092596;28;20039;-69
2023/05/10 04:37:22;;;;;;;11.75;8.68;;;;;;;;;;5091099;28;20534;-69
2023/05/10 04:39:48;;;;;;;9.32;7.93;;;;;;;;;;5107905;28;20111;-68
2023/05/10 04:42:15;;;;;;;9.02;6.82;;;;;;;;;;5090302;28;20040;-69
2023/05/10 04:44:41;;;;;;;7.13;6.38;;;;;;;;;;5091308;28;20044;-70
2023/05/10 04:47:07;;;;;;;8.00;6.05;;;;;;;;;;5102970;28;20040;-68
2023/05/10 04:49:33;;;;;;;5.88;4.40;;;;;;;;;;5102046;28;20402;-68
2023/05/10 04:51:59;;;;;;;3.88;3.22;;;;;;;;;;5107464;28;20035;-70
2023/05/10 04:54:26;;;;;;;6.38;1.98;;;;;;;;;;5098073;28;20039;-68
2023/05/10 04:56:52;;;;;;;1.83;1.33;;;;;;;;;;5095288;28;20040;-69
2023/05/10 04:59:18;;;;;;;1.63;1.33;;;;;;;;;;5090899;28;20043;-68
2023/05/10 05:01:44;;;;;;;1.25;0.88;;;;;;;;;;5091274;28;20047;-69
2023/05/10 05:04:10;;;;;;;1.20;0.90;;;;;;;;;;5090721;28;20101;-70
2023/05/10 05:06:36;;;;;;;1.63;1.45;;;;;;;;;;5096215;28;20051;-69
2023/05/10 05:09:03;;;;;;;2.25;1.40;;;;;;;;;;5100694;28;20055;-68
2023/05/10 05:11:29;;;;;;;2.38;1.77;;;;;;;;;;5107678;28;20096;-70
2023/05/10 05:13:55;;;;;;;1.80;1.30;;;;;;;;;;5101793;28;20036;-70
2023/05/10 05:16:21;;;;;;;3.92;1.77;;;;;;;;;;5095167;28;20158;-68
2023/05/10 05:18:47;;;;;;;2.78;2.03;;;;;;;;;;5097638;28;20146;-69
2023/05/10 05:21:15;;;;;;;4.05;2.13;;;;;;;;;;5092342;28;20047;-68
2023/05/10 05:23:41;;;;;;;4.13;3.05;;;;;;;;;;5093787;28;20036;-68
2023/05/10 05:26:07;;;;;;;4.30;3.28;;;;;;;;;;5095304;28;20114;-68
2023/05/10 05:28:36;;;;;;;4.80;4.13;;;;;;;;;;5097645;28;20035;-69
2023/05/10 05:31:03;;;;;;;5.25;4.20;;;;;;;;;;5105134;28;20047;-70
2023/05/10 05:33:29;;;;;;;4.55;3.72;;;;;;;;;;5090131;28;20119;-68
2023/05/10 05:35:55;;;;;;;6.82;5.15;;;;;;;;;;5096189;28;20047;-70
2023/05/10 05:38:21;;;;;;;6.20;5.00;;;;;;;;;;5095343;28;20476;-70
2023/05/10 05:40:47;;;;;;;5.70;4.93;;;;;;;;;;5091502;28;20039;-69
2023/05/10 05:43:13;;;;;;;8.55;5.78;;;;;;;;;;5101162;28;20043;-68
2023/05/10 05:45:40;;;;;;;7.25;5.72;;;;;;;;;;5090335;28;20036;-68
2023/05/10 05:48:06;;;;;;;7.70;5.50;;;;;;;;;;5089953;28;20083;-68
2023/05/10 05:50:32;;;;;;;7.45;5.80;;;;;;;;;;5093714;28;20039;-68
2023/05/10 05:52:58;;;;;;;6.70;5.65;;;;;;;;;;5099482;28;20143;-69
2023/05/10 05:55:25;;;;;;;7.30;6.50;;;;;;;;;;5090752;28;20051;-68
2023/05/10 05:57:52;;;;;;;9.10;7.20;;;;;;;;;;5090696;28;20414;-70
2023/05/10 06:00:18;;;;;;;9.10;7.03;;;;;;;;;;5091611;28;20044;-69
2023/05/10 06:02:44;;;;;;;8.20;5.85;;;;;;;;;;5101408;28;20050;-68
2023/05/10 06:05:10;;;;;;;6.97;5.75;;;;;;;;;;5094196;28;20044;-69
2023/05/10 06:07:37;;;;;;;6.70;5.45;;;;;;;;;;5089076;28;20067;-70
2023/05/10 06:10:03;;;;;;;5.78;4.68;;;;;;;;;;5100949;28;20374;-68
2023/05/10 06:12:29;;;;;;;5.57;4.55;;;;;;;;;;5102653;28;20040;-68
2023/05/10 06:14:55;;;;;;;6.05;4.22;;;;;;;;;;5098219;28;20802;-69
2023/05/10 06:17:22;;;;;;;4.13;3.15;;;;;;;;;;5099539;28;20470;-69
2023/05/10 06:19:48;;;;;;;6.13;4.03;;;;;;;;;;5090748;28;20083;-69
2023/05/10 06:22:14;;;;;;;5.28;3.38;;;;;;;;;;5087727;28;20055;-69
2023/05/10 06:24:41;;;;;;;5.80;3.75;;;;;;;;;;5095675;28;20357;-69
2023/05/10 06:27:07;;;;;;;6.40;3.78;;;;;;;;;;5094140;28;20070;-69
2023/05/10 06:29:33;;;;;;;5.07;3.50;;;;;;;;;;5091484;28;20513;-68
2023/05/10 06:31:59;;;;;;;4.18;3.05;;;;;;;;;;5090024;28;20477;-69
2023/05/10 06:34:26;;;;;;;3.60;2.92;;;;;;;;;;5102262;28;20040;-69
2023/05/10 06:36:52;;;;;;;4.13;2.92;;;;;;;;;;5102341;28;20481;-69
2023/05/10 06:39:18;;;;;;;3.20;2.33;;;;;;;;;;5093701;28;20040;-69
2023/05/10 06:41:44;;;;;;;5.25;2.53;;;;;;;;;;5088532;28;20542;-69
2023/05/10 06:44:10;;;;;;;3.95;2.60;;;;;;;;;;5098679;28;20473;-69
2023/05/10 06:46:36;;;;;;;3.13;2.25;;;;;;;;;;5089426;28;20036;-68
2023/05/10 06:49:03;;;;;;;4.00;2.42;;;;;;;;;;5102884;28;20606;-69
2023/05/10 06:51:29;;;;;;;3.08;2.00;;;;;;;;;;5106077;28;20040;-69
2023/05/10 06:53:55;;;;;;;3.53;1.80;;;;;;;;;;5102176;28;20151;-69
2023/05/10 06:56:21;;;;;;;2.33;1.60;;;;;;;;;;5091390;28;20093;-68
2023/05/10 06:58:50;;;;;;;2.33;1.63;;;;;;;;;;5088307;28;20043;-69
2023/05/10 07:01:16;;;;;;;3.70;2.10;;;;;;;;;;5102474;28;20122;-69
2023/05/10 07:03:43;;;;;;;3.15;2.08;;;;;;;;;;5093980;28;20032;-70
2023/05/10 07:06:09;;;;;;;3.35;2.28;;;;;;;;;;5098157;28;20051;-69
2023/05/10 07:08:35;;;;;;;3.92;2.15;;;;;;;;;;5087897;28;20095;-70
2023/05/10 07:11:03;;;;;;;4.25;2.47;;;;;;;;;;5104759;28;20043;-69
2023/05/10 07:13:30;;;;;;;4.30;2.50;;;;;;;;;;5106235;28;20430;-68
2023/05/10 07:15:56;;;;;;;4.40;3.17;;;;;;;;;;5097989;27;20051;-68
2023/05/10 07:18:22;;;;;;;3.70;2.58;;;;;;;;;;5099183;28;20039;-69
2023/05/10 07:20:48;;;;;;;4.20;3.10;;;;;;;;;;5102744;28;20032;-68
2023/05/10 07:23:14;;;;;;;4.07;2.83;;;;;;;;;;5106708;28;20057;-68
2023/05/10 07:25:41;;;;;;;4.30;2.72;;;;;;;;;;5114625;27;20035;-69
2023/05/10 07:28:07;;;;;;;4.97;2.88;;;;;;;;;;5103054;27;20066;-68
2023/05/10 07:30:33;;;;;;;3.58;2.85;;;;;;;;;;5091906;28;20090;-70
2023/05/10 07:32:59;;;;;;;3.83;2.75;;;;;;;;;;5091192;28;20040;-68
2023/05/10 07:35:26;;;;;;;5.43;2.90;;;;;;;;;;5103057;28;20076;-70
2023/05/10 07:37:52;;;;;;;4.60;2.80;;;;;;;;;;5096487;28;20166;-68
2023/05/10 07:40:18;;;;;;;3.78;2.75;;;;;;;;;;5086879;28;20051;-69
2023/05/10 07:42:44;;;;;;;4.32;2.10;;;;;;;;;;5103670;28;20071;-68
2023/05/10 07:45:10;;;;;;;4.43;2.22;;;;;;;;;;5089744;28;20032;-68
2023/05/10 07:47:36;;;;;;;4.15;2.53;;;;;;;;;;5096842;28;20031;-69
2023/05/10 07:50:03;;;;;;;6.70;3.38;;;;;;;;;;5096448;28;20059;-68
2023/05/10 07:52:29;;;;;;;3.70;2.88;;;;;;;;;;5101477;28;20043;-70
2023/05/10 07:54:56;;;;;;;3.90;2.45;;;;;;;;;;5101151;28;20043;-69
2023/05/10 07:57:22;;;;;;;4.00;2.53;;;;;;;;;;5097838;28;20083;-69
2023/05/10 07:59:49;;;;;;;4.50;2.80;;;;;;;;;;5106149;28;20431;-69
2023/05/10 08:02:15;;;;;;;4.18;2.30;;;;;;;;;;5102584;28;20080;-69
2023/05/10 08:04:41;;;;;;;4.65;2.53;;;;;;;;;;5093561;28;20047;-68
2023/05/10 08:07:07;;;;;;;9.90;3.88;;;;;;;;;;5098481;28;20063;-68
2023/05/10 08:09:34;;;;;;;4.03;3.05;;;;;;;;;;5087226;28;20105;-68
2023/05/10 08:12:00;;;;;;;4.35;2.90;;;;;;;;;;5103772;28;20047;-68
2023/05/10 08:14:26;;;;;;;3.88;2.75;;;;;;;;;;5090138;28;20119;-68
2023/05/10 08:16:52;;;;;;;6.70;3.78;;;;;;;;;;5105999;28;20040;-68
2023/05/10 08:19:21;;;;;;;7.25;3.97;;;;;;;;;;5093728;28;20044;-69
2023/05/10 08:21:47;;;;;;;9.27;4.80;;;;;;;;;;5087014;28;20393;-69
2023/05/10 08:24:13;;;;;;;5.05;3.45;;;;;;;;;;5094774;28;20068;-69
2023/05/10 08:26:39;;;;;;;4.78;3.45;;;;;;;;;;5104460;28;20066;-68
2023/05/10 08:29:05;;;;;;;5.95;3.58;;;;;;;;;;5100585;28;20040;-68
2023/05/10 08:31:32;;;;;;;5.85;4.20;;;;;;;;;;5098144;28;20056;-69
2023/05/10 08:33:58;;;;;;;6.13;4.53;;;;;;;;;;5090170;28;20075;-69
2023/05/10 08:36:24;;;;;;;9.98;4.68;;;;;;;;;;5101576;28;20032;-68
2023/05/10 08:38:52;;;;;;;6.07;4.40;;;;;;;;;;5107347;28;20043;-70
2023/05/10 08:41:20;;;;;;;6.47;4.60;;;;;;;;;;5099952;28;20130;-68
2023/05/10 08:43:47;;;;;;;10.68;5.13;;;;;;;;;;5090540;28;20044;-69
2023/05/10 08:46:17;;;;;;;7.45;4.38;;;;;;;;;;5109452;28;20319;-69
2023/05/10 08:48:44;;;;;;;7.60;5.30;;;;;;;;;;5109116;28;20114;-68
2023/05/10 08:51:10;;;;;;;6.00;4.30;;;;;;;;;;5108195;28;20084;-69
2023/05/10 08:53:37;;;;;;;6.10;3.90;;;;;;;;;;5106981;28;20063;-69
2023/05/10 08:56:03;;;;;;;5.30;3.20;;;;;;;;;;5098929;28;20198;-68
2023/05/10 08:58:30;;;;;;;5.75;3.88;;;;;;;;;;5099301;28;20393;-69
2023/05/10 09:00:57;;;;;;;9.05;4.47;;;;;;;;;;5106446;28;20078;-68
2023/05/10 09:03:23;;;;;;;5.70;4.00;;;;;;;;;;5089333;28;20040;-68
2023/05/10 09:05:50;;;;;;;9.02;4.03;;;;;;;;;;5092214;28;20110;-68
2023/05/10 09:08:16;;;;;;;7.20;5.30;;;;;;;;;;5101155;28;20478;-69
2023/05/10 09:10:43;;;;;;;5.38;3.75;;;;;;;;;;5096218;28;20462;-68
2023/05/10 09:13:11;;;;;;;5.93;3.88;;;;;;;;;;5105383;28;20055;-70
2023/05/10 09:15:38;;;;;;;5.50;3.80;;;;;;;;;;5098123;28;20469;-70
2023/05/10 09:18:04;;;;;;;6.18;3.85;;;;;;;;;;5104708;28;20447;-70
2023/05/10 09:20:30;;;;;;;6.95;4.13;;;;;;;;;;5099561;28;20027;-70
2023/05/10 09:22:57;;;;;;;5.80;3.95;;;;;;;;;;5094180;28;20047;-68
2023/05/10 09:25:23;;;;;;;7.10;4.15;;;;;;;;;;5114396;27;20042;-68
2023/05/10 09:27:49;;;;;;;9.00;4.95;;;;;;;;;;5093651;27;20052;-68
2023/05/10 09:30:24;;;;;;;9.60;5.43;;;;;;;;;;5089317;28;20263;-69
2023/05/10 09:32:51;;;;;;;11.45;6.18;;;;;;;;;;5107540;28;20039;-68
2023/05/10 09:35:18;;;;;;;8.95;5.22;;;;;;;;;;5106642;28;20036;-68
2023/05/10 09:37:48;;;;;;;7.22;5.30;;;;;;;;;;5098340;28;20093;-68
2023/05/10 09:40:33;;;;;;;9.75;6.65;;;;;;;;;;5104738;28;20047;-68
2023/05/10 09:42:59;;;;;;;8.80;6.00;;;;;;;;;;5094815;28;20119;-68
2023/05/10 09:45:26;;;;;;;9.95;6.70;;;;;;;;;;5101413;28;20040;-68
2023/05/10 09:47:52;;;;;;;10.57;7.65;;;;;;;;;;5103643;28;20088;-69
2023/05/10 09:50:19;;;;;;;8.80;6.72;;;;;;;;;;5093838;28;20115;-69
2023/05/10 09:52:48;;;;;;;11.50;7.78;;;;;;;;;;5103479;27;20035;-70
2023/05/10 09:55:14;;;;;;;9.82;6.82;;;;;;;;;;5097092;28;20397;-68
2023/05/10 09:57:41;;;;;;;9.32;7.38;;;;;;;;;;5096645;28;20241;-70
2023/05/10 10:00:07;;;;;;;10.85;6.13;;;;;;;;;;5106524;28;20259;-68
2023/05/10 10:02:33;;;;;;;9.00;6.72;;;;;;;;;;5094220;28;20445;-68
2023/05/10 10:05:03;;;;;;;9.60;6.07;;;;;;;;;;5107818;28;20059;-68
2023/05/10 10:07:29;;;;;;;9.75;6.00;;;;;;;;;;5107299;27;20054;-68
2023/05/10 10:09:56;;;;;;;10.45;7.00;;;;;;;;;;5092268;28;20070;-68
2023/05/10 10:12:22;;;;;;;10.77;6.15;;;;;;;;;;5105193;28;20431;-68
2023/05/10 10:14:50;;;;;;;10.77;6.70;;;;;;;;;;5089388;28;20409;-68
2023/05/10 10:17:16;;;;;;;10.70;5.45;;;;;;;;;;5094136;28;20040;-68
2023/05/10 10:19:43;;;;;;;9.38;6.55;;;;;;;;;;5092453;28;20195;-68
2023/05/10 10:22:12;;;;;;;11.73;5.60;;;;;;;;;;5088758;28;20072;-68
2023/05/10 10:24:42;;;;;;;8.40;5.72;;;;;;;;;;5093245;27;20114;-68
2023/05/10 10:27:17;;;;;;;9.00;6.07;;;;;;;;;;5111727;27;20449;-68
2023/05/10 10:29:43;;;;;;;8.98;5.55;;;;;;;;;;5095690;27;20051;-68
2023/05/10 10:32:09;;;;;;;6.75;5.55;;;;;;;;;;5102035;28;20256;-68
2023/05/10 10:34:35;;;;;;;8.27;5.70;;;;;;;;;;5093927;28;20109;-68
2023/05/10 10:37:06;;;;;;;9.52;5.72;;;;;;;;;;5103711;28;20126;-68
2023/05/10 10:39:33;;;;;;;9.18;5.68;;;;;;;;;;5093394;28;20040;-68
2023/05/10 10:41:59;;;;;;;8.27;5.53;;;;;;;;;;5093815;28;20456;-68
2023/05/10 10:44:27;;;;;;;9.10;5.75;;;;;;;;;;5099993;28;20438;-68
2023/05/10 10:47:00;;;;;;;5.97;4.55;;;;;;;;;;5102712;28;20457;-68
2023/05/10 10:49:26;;;;;;;8.57;5.03;;;;;;;;;;5092594;28;20052;-68
2023/05/10 10:52:11;;;;;;;8.85;5.72;;;;;;;;;;5097930;28;20036;-68
2023/05/10 10:54:38;;;;;;;7.97;5.53;;;;;;;;;;5104332;28;20039;-68
2023/05/10 10:57:14;;;;;;;7.60;5.57;;;;;;;;;;5092407;28;20054;-68
2023/05/10 10:59:46;;;;;;;7.35;5.38;;;;;;;;;;5088824;28;20097;-68
2023/05/10 11:02:31;;;;;;;10.13;6.85;;;;;;;;;;5076759;28;20135;-68
2023/05/10 11:04:57;;;;;;;8.38;5.03;;;;;;;;;;5105122;28;20465;-68
2023/05/10 11:07:24;;;;;;;7.50;5.18;;;;;;;;;;5089120;28;20079;-68
2023/05/10 11:09:50;;;;;;;9.38;5.40;;;;;;;;;;5095951;28;20251;-68
2023/05/10 11:12:16;;;;;;;9.52;5.25;;;;;;;;;;5094829;28;20040;-68
2023/05/10 11:14:42;;;;;;;8.77;5.53;;;;;;;;;;5106997;27;20373;-68
2023/05/10 11:17:28;;;;;;;10.65;5.93;;;;;;;;;;5104502;27;20458;-68
2023/05/10 11:20:08;;;;;;;7.78;5.47;;;;;;;;;;5100166;27;20067;-69
2023/05/10 11:22:54;;;;;;;13.73;9.43;;;;;;;;;;5091456;27;20195;-68
2023/05/10 11:25:21;;;;;;;8.15;5.82;;;;;;;;;;5091693;28;20107;-68
2023/05/10 11:27:50;;;;;;;9.05;5.93;;;;;;;;;;5089484;28;20077;-68
2023/05/10 11:30:16;;;;;;;7.70;5.90;;;;;;;;;;5099054;28;20362;-69
2023/05/10 11:32:43;;;;;;;6.20;5.20;;;;;;;;;;5097364;28;20046;-68
2023/05/10 11:35:10;;;;;;;8.20;5.97;;;;;;;;;;5087141;28;20458;-67
2023/05/10 11:37:36;;;;;;;8.25;5.45;;;;;;;;;;5098614;28;20342;-68
2023/05/10 11:40:03;;;;;;;6.15;4.95;;;;;;;;;;5089745;28;20088;-68
2023/05/10 11:42:30;;;;;;;7.88;5.45;;;;;;;;;;5089915;28;20120;-69
2023/05/10 11:44:56;;;;;;;9.75;5.32;;;;;;;;;;5102417;28;20527;-68
2023/05/10 11:47:22;;;;;;;7.53;4.97;;;;;;;;;;5088365;28;20036;-68
2023/05/10 11:49:48;;;;;;;6.40;4.40;;;;;;;;;;5088015;28;20075;-68
2023/05/10 11:52:14;;;;;;;8.50;5.00;;;;;;;;;;5096624;28;20115;-68
2023/05/10 11:54:53;;;;;;;6.43;5.22;;;;;;;;;;5086893;28;20136;-70
2023/05/10 11:57:20;;;;;;;8.68;4.97;;;;;;;;;;5087695;28;20035;-68
2023/05/10 11:59:54;;;;;;;8.82;5.72;;;;;;;;;;5089718;28;20190;-68
2023/05/10 12:02:20;;;;;;;6.50;4.55;;;;;;;;;;5091884;28;20445;-69
2023/05/10 12:04:47;;;;;;;7.07;5.40;;;;;;;;;;5090848;28;20036;-67
2023/05/10 12:07:13;;;;;;;8.15;6.22;;;;;;;;;;5089491;28;20074;-67
2023/05/10 12:10:02;;;;;;;7.85;5.45;;;;;;;;;;5089345;28;20048;-68
2023/05/10 12:12:35;;;;;;;8.13;5.65;;;;;;;;;;5088912;28;20043;-67
2023/05/10 12:15:03;;;;;;;7.53;5.72;;;;;;;;;;5093418;28;20036;-69
2023/05/10 12:17:29;;;;;;;8.27;5.90;;;;;;;;;;5095224;28;20059;-67
2023/05/10 12:20:00;;;;;;;7.35;5.07;;;;;;;;;;5094246;28;20040;-69
2023/05/10 12:22:26;;;;;;;8.30;5.32;;;;;;;;;;5091526;28;20103;-68
2023/05/10 12:24:52;;;;;;;8.45;5.43;;;;;;;;;;5090629;28;20040;-68
2023/05/10 12:27:18;;;;;;;9.10;6.22;;;;;;;;;;5096158;28;20050;-68
2023/05/10 12:29:45;;;;;;;8.32;5.82;;;;;;;;;;5093383;28;20082;-68
2023/05/10 12:32:11;;;;;;;9.68;5.90;;;;;;;;;;5109500;28;20048;-68
2023/05/10 12:34:38;;;;;;;8.13;5.88;;;;;;;;;;5101669;28;20551;-68
2023/05/10 12:37:04;;;;;;;8.43;5.82;;;;;;;;;;5103609;28;20274;-69
2023/05/10 12:39:40;;;;;;;10.50;6.28;;;;;;;;;;5090403;28;20489;-68
2023/05/10 12:42:07;;;;;;;11.10;6.85;;;;;;;;;;5089333;28;20513;-68
2023/05/10 12:44:33;;;;;;;8.23;5.68;;;;;;;;;;5093268;28;20355;-68
2023/05/10 12:46:59;;;;;;;7.68;5.90;;;;;;;;;;5103608;28;20494;-68
2023/05/10 12:49:25;;;;;;;11.98;6.60;;;;;;;;;;5091612;28;20182;-68
2023/05/10 12:51:51;;;;;;;10.88;7.13;;;;;;;;;;5092549;28;20469;-68
2023/05/10 12:54:17;;;;;;;13.65;7.60;;;;;;;;;;5088798;28;20097;-67
2023/05/10 12:56:44;;;;;;;10.30;7.15;;;;;;;;;;5089899;28;20059;-67
2023/05/10 12:59:10;;;;;;;8.13;5.75;;;;;;;;;;5105090;28;20047;-67
2023/05/10 13:01:36;;;;;;;9.50;6.63;;;;;;;;;;5093638;28;20088;-68
2023/05/10 13:04:02;;;;;;;9.02;6.15;;;;;;;;;;5102397;28;20051;-68
2023/05/10 13:06:28;;;;;;;9.68;5.55;;;;;;;;;;5091245;28;20551;-68
2023/05/10 13:08:54;;;;;;;8.73;5.95;;;;;;;;;;5089953;28;20120;-68
2023/05/10 13:11:21;;;;;;;6.85;4.97;;;;;;;;;;5097121;28;20131;-68
2023/05/10 13:13:47;;;;;;;10.75;6.70;;;;;;;;;;5093852;28;20035;-69
2023/05/10 13:16:13;;;;;;;9.85;5.65;;;;;;;;;;5109044;28;20067;-69
2023/05/10 13:18:39;;;;;;;7.10;4.65;;;;;;;;;;5095680;28;20040;-68
2023/05/10 13:21:05;;;;;;;8.43;5.18;;;;;;;;;;5091020;28;20090;-68
2023/05/10 13:23:32;;;;;;;9.48;4.53;;;;;;;;;;5094963;28;20067;-68
2023/05/10 13:25:58;;;;;;;7.10;4.68;;;;;;;;;;5100975;28;20520;-68
2023/05/10 13:28:26;;;;;;;10.80;6.07;;;;;;;;;;5094538;28;20413;-68
2023/05/10 13:30:52;;;;;;;13.65;8.70;;;;;;;;;;5094784;28;20046;-70
2023/05/10 13:33:18;;;;;;;8.82;6.78;;;;;;;;;;5092651;28;20494;-68
2023/05/10 13:35:44;;;;;;;10.55;5.85;;;;;;;;;;5101939;28;20040;-67
2023/05/10 13:38:11;;;;;;;9.82;6.30;;;;;;;;;;5108578;28;20047;-68
2023/05/10 13:40:37;;;;;;;9.82;5.60;;;;;;;;;;5108351;28;20038;-69
2023/05/10 13:43:03;;;;;;;8.05;5.28;;;;;;;;;;5096260;28;20385;-69
2023/05/10 13:45:29;;;;;;;6.93;5.55;;;;;;;;;;5099128;28;20464;-68
2023/05/10 13:47:55;;;;;;;9.55;5.57;;;;;;;;;;5091342;28;20523;-68
2023/05/10 13:50:21;;;;;;;11.15;7.00;;;;;;;;;;5094383;28;20036;-68
2023/05/10 13:52:47;;;;;;;10.02;5.20;;;;;;;;;;5104967;28;20119;-69
2023/05/10 13:55:14;;;;;;;10.02;6.30;;;;;;;;;;5099995;28;20047;-68
2023/05/10 13:57:40;;;;;;;9.98;7.00;;;;;;;;;;5102939;28;20039;-68
2023/05/10 14:00:07;;;;;;;7.22;5.55;;;;;;;;;;5094180;28;20031;-68
2023/05/10 14:02:33;;;;;;;7.55;4.93;;;;;;;;;;5095659;28;20032;-68
2023/05/10 14:05:00;;;;;;;4.68;3.47;;;;;;;;;;5094736;28;20096;-68
2023/05/10 14:07:26;;;;;;;9.05;5.10;;;;;;;;;;5109323;27;20405;-68
2023/05/10 14:09:52;;;;;;;9.10;5.78;;;;;;;;;;5110978;27;20249;-68
2023/05/10 14:12:18;;;;;;;9.80;6.00;;;;;;;;;;5097356;28;20048;-68
2023/05/10 14:14:45;;;;;;;7.85;5.63;;;;;;;;;;5094776;27;20046;-68
2023/05/10 14:17:11;;;;;;;8.35;5.72;;;;;;;;;;5100267;28;20158;-68
2023/05/10 14:19:38;;;;;;;9.10;5.90;;;;;;;;;;5107043;28;20035;-70
2023/05/10 14:22:04;;;;;;;8.73;5.65;;;;;;;;;;5103843;28;20123;-69
2023/05/10 14:24:30;;;;;;;8.40;5.15;;;;;;;;;;5094404;28;20502;-68
2023/05/10 14:26:57;;;;;;;7.75;5.55;;;;;;;;;;5090269;28;20040;-68
2023/05/10 14:29:23;;;;;;;7.13;5.50;;;;;;;;;;5089710;28;20040;-68
2023/05/10 14:31:50;;;;;;;6.60;4.93;;;;;;;;;;5089931;28;20059;-68
2023/05/10 14:34:16;;;;;;;5.30;4.15;;;;;;;;;;5105221;28;20182;-68
2023/05/10 14:36:42;;;;;;;5.60;4.35;;;;;;;;;;5108828;28;20217;-68